createdAt,value
2023-01-28T00:04:45.086Z,59.62
2023-01-28T00:09:47.753Z,59.39
2023-01-28T00:14:50.495Z,59.19
2023-01-28T00:19:53.425Z,59.65
2023-01-28T00:24:56.389Z,59.80
2023-01-28T00:29:58.928Z,59.97
2023-01-28T00:35:01.598Z,59.25
2023-01-28T00:40:06.535Z,58.99
2023-01-28T00:45:09.737Z,59.47
2023-01-28T00:50:12.425Z,59.42
2023-01-28T00:55:15.787Z,58.76
2023-01-28T01:00:20.725Z,59.07
2023-01-28T01:05:24.811Z,59.54
2023-01-28T01:10:27.558Z,59.57
2023-01-28T01:15:30.666Z,59.17
2023-01-28T01:20:33.716Z,59.12
2023-01-28T01:25:36.468Z,59.23
2023-01-28T01:30:39.232Z,59.02
2023-01-28T01:35:42.231Z,59.53
2023-01-28T01:40:45.037Z,58.99
2023-01-28T01:45:59.523Z,59.08
2023-01-28T01:51:09.260Z,59.79
2023-01-28T01:56:17.342Z,59.26
2023-01-28T02:01:26.570Z,58.88
2023-01-28T02:06:31.051Z,59.25
2023-01-28T02:11:34.613Z,58.26
2023-01-28T02:16:37.542Z,58.82
2023-01-28T02:22:25.239Z,58.48
2023-01-28T02:27:34.709Z,58.56
2023-01-28T02:32:45.249Z,58.31
2023-01-28T02:38:01.004Z,57.98
2023-01-28T02:43:04.110Z,58.97
2023-01-28T02:48:07.048Z,58.54
2023-01-28T02:53:43.511Z,58.33
2023-01-28T02:59:26.798Z,58.34
2023-01-28T03:04:58.850Z,58.96
2023-01-28T03:10:06.465Z,58.48
2023-01-28T03:15:35.658Z,58.37
2023-01-28T03:21:17.334Z,58.50
2023-01-28T03:26:41.906Z,58.58
2023-01-28T03:32:03.756Z,58.63
2023-01-28T03:37:09.215Z,58.42
2023-01-28T03:42:19.060Z,58.84
2023-01-28T03:47:32.433Z,58.84
2023-01-28T03:52:37.070Z,58.34
2023-01-28T03:57:59.742Z,58.27
2023-01-28T04:03:02.634Z,59.12
2023-01-28T04:08:05.874Z,58.65
2023-01-28T04:13:31.145Z,58.54
2023-01-28T04:18:34.089Z,58.71
2023-01-28T04:23:39.059Z,58.97
2023-01-28T04:28:43.034Z,58.75
2023-01-28T04:33:46.146Z,58.77
2023-01-28T04:39:07.309Z,58.36
2023-01-28T04:44:14.008Z,58.50
2023-01-28T04:49:42.882Z,57.94
2023-01-28T04:55:06.040Z,58.42
2023-01-28T05:00:09.822Z,58.14
2023-01-28T05:05:12.721Z,56.90
2023-01-28T05:10:40.291Z,56.88
2023-01-28T05:15:43.318Z,55.71
2023-01-28T05:20:46.313Z,55.16
2023-01-28T05:25:49.750Z,55.22
2023-01-28T05:30:53.250Z,53.54
2023-01-28T05:35:56.445Z,53.07
2023-01-28T05:40:59.565Z,50.32
2023-01-28T05:46:02.357Z,49.00
2023-01-28T05:51:25.053Z,48.12
2023-01-28T05:56:35.413Z,45.72
2023-01-28T06:01:38.367Z,43.89
2023-01-28T06:06:41.334Z,41.76
2023-01-28T06:11:45.505Z,42.50
2023-01-28T06:16:50.407Z,40.80
2023-01-28T06:22:01.368Z,39.93
2023-01-28T06:27:04.198Z,38.75
2023-01-28T06:32:07.151Z,37.89
2023-01-28T06:37:09.787Z,37.06
2023-01-28T06:42:12.435Z,36.13
2023-01-28T06:47:15.751Z,35.47
2023-01-28T06:52:18.544Z,34.64
2023-01-28T06:57:21.112Z,34.07
2023-01-28T07:02:25.942Z,33.08
2023-01-28T07:07:29.939Z,32.08
2023-01-28T07:12:32.521Z,32.36
2023-01-28T07:17:35.255Z,31.58
2023-01-28T07:22:39.842Z,31.27
2023-01-28T07:27:53.807Z,31.31
2023-01-28T07:32:58.928Z,31.01
2023-01-28T07:38:02.880Z,31.78
2023-01-28T07:43:07.557Z,32.79
2023-01-28T07:48:15.263Z,33.28
2023-01-28T07:53:20.678Z,36.55
2023-01-28T07:58:23.404Z,36.24
2023-01-28T08:03:26.733Z,35.07
2023-01-28T08:08:29.659Z,36.47
2023-01-28T08:13:32.352Z,34.37
2023-01-28T08:18:35.153Z,33.34
2023-01-28T08:23:38.420Z,33.95
2023-01-28T08:28:42.249Z,34.26
2023-01-28T08:33:44.812Z,34.36
2023-01-28T08:38:47.764Z,34.23
2023-01-28T08:43:50.474Z,33.78
2023-01-28T08:48:53.480Z,31.97
2023-01-28T08:53:56.298Z,31.48
2023-01-28T08:58:59.051Z,31.52
2023-01-28T09:04:02.224Z,30.62
2023-01-28T09:09:06.496Z,29.47
2023-01-28T09:14:11.337Z,29.35
2023-01-28T09:19:15.659Z,28.09
2023-01-28T09:24:19.192Z,28.33
2023-01-28T09:29:23.802Z,28.55
2023-01-28T09:34:26.513Z,28.46
2023-01-28T09:39:29.351Z,28.21
2023-01-28T09:44:53.757Z,27.41
2023-01-28T09:50:00.140Z,26.94
2023-01-28T09:55:44.760Z,26.96
2023-01-28T10:01:11.898Z,26.57
2023-01-28T10:06:46.284Z,28.00
2023-01-28T10:12:01.150Z,27.60
2023-01-28T10:17:38.382Z,29.65
2023-01-28T10:23:11.254Z,30.57
2023-01-28T10:28:24.915Z,30.00
2023-01-28T10:33:40.427Z,29.23
2023-01-28T10:38:44.179Z,29.86
2023-01-28T10:43:49.509Z,29.97
2023-01-28T10:49:27.069Z,30.86
2023-01-28T10:54:31.308Z,30.58
2023-01-28T10:59:38.945Z,30.70
2023-01-28T11:04:43.796Z,31.68
2023-01-28T11:09:52.689Z,31.52
2023-01-28T11:14:58.042Z,31.12
2023-01-28T11:20:18.273Z,31.72
2023-01-28T11:25:37.947Z,31.44
2023-01-28T11:30:41.818Z,31.88
2023-01-28T11:35:58.832Z,32.93
2023-01-28T11:41:03.110Z,33.15
2023-01-28T11:46:20.750Z,33.37
2023-01-28T11:51:33.666Z,33.34
2023-01-28T11:57:01.174Z,34.74
2023-01-28T12:02:46.251Z,33.86
2023-01-28T12:07:56.028Z,35.37
2023-01-28T12:13:23.498Z,36.16
2023-01-28T12:18:58.612Z,36.33
2023-01-28T12:24:45.873Z,37.07
2023-01-28T12:30:00.039Z,38.12
2023-01-28T12:35:26.111Z,37.87
2023-01-28T12:40:33.743Z,39.05
2023-01-28T12:45:46.026Z,38.80
2023-01-28T12:51:02.333Z,38.66
2023-01-28T12:56:30.357Z,38.56
2023-01-28T13:01:53.573Z,39.36
2023-01-28T13:07:06.010Z,40.38
2023-01-28T13:12:13.816Z,41.20
2023-01-28T13:17:26.410Z,42.50
2023-01-28T13:22:36.383Z,42.10
2023-01-28T13:27:39.755Z,44.29
2023-01-28T13:32:42.728Z,44.50
2023-01-28T13:37:47.527Z,45.39
2023-01-28T13:43:31.453Z,47.25
2023-01-28T13:48:54.924Z,46.96
2023-01-28T13:54:21.452Z,47.50
2023-01-28T13:59:38.335Z,47.87
2023-01-28T14:05:29.303Z,49.37
2023-01-28T14:10:56.510Z,48.79
2023-01-28T14:16:17.675Z,50.17
2023-01-28T14:21:22.879Z,50.44
2023-01-28T14:26:42.146Z,51.73
2023-01-28T14:31:45.131Z,52.73
2023-01-28T14:36:50.071Z,53.49
2023-01-28T14:41:55.159Z,53.23
2023-01-28T14:47:27.851Z,53.26
2023-01-28T14:52:48.421Z,54.41
2023-01-28T14:57:56.956Z,55.19
2023-01-28T15:03:00.285Z,55.04
2023-01-28T15:08:03.054Z,55.27
2023-01-28T15:13:07.885Z,56.13
2023-01-28T15:18:19.272Z,55.95
2023-01-28T15:23:28.538Z,55.79
2023-01-28T15:28:33.609Z,56.35
2023-01-28T15:33:36.482Z,56.79
2023-01-28T15:38:39.142Z,57.28
2023-01-28T15:43:42.044Z,57.41
2023-01-28T15:48:50.494Z,57.12
2023-01-28T15:53:59.445Z,57.44
2023-01-28T15:59:11.059Z,57.01
2023-01-28T16:04:29.130Z,57.33
2023-01-28T16:09:34.662Z,57.45
2023-01-28T16:14:49.472Z,57.68
2023-01-28T16:20:06.443Z,57.43
2023-01-28T16:25:28.869Z,56.72
2023-01-28T16:30:32.929Z,56.71
2023-01-28T16:35:57.112Z,57.15
2023-01-28T16:40:59.737Z,56.07
2023-01-28T16:46:02.624Z,57.00
2023-01-28T16:51:05.626Z,57.01
2023-01-28T16:56:24.972Z,56.36
2023-01-28T17:01:33.989Z,56.82
2023-01-28T17:06:43.510Z,56.14
2023-01-28T17:11:46.444Z,56.77
2023-01-28T17:16:49.312Z,55.72
2023-01-28T17:21:52.651Z,57.00
2023-01-28T17:26:55.519Z,56.44
2023-01-28T17:31:59.408Z,55.76
2023-01-28T17:37:04.205Z,56.92
2023-01-28T17:42:07.017Z,55.93
2023-01-28T17:47:10.167Z,56.37
2023-01-28T17:52:13.721Z,55.18
2023-01-28T17:57:16.481Z,55.33
2023-01-28T18:02:19.352Z,55.36
2023-01-28T18:07:24.857Z,55.02
2023-01-28T18:12:28.195Z,55.31
2023-01-28T18:17:30.994Z,55.08
2023-01-28T18:22:33.975Z,55.12
2023-01-28T18:27:36.819Z,55.30
2023-01-28T18:32:40.942Z,54.76
2023-01-28T18:37:43.756Z,54.98
2023-01-28T18:42:46.405Z,55.26
2023-01-28T18:47:49.437Z,54.89
2023-01-28T18:52:54.174Z,54.63
2023-01-28T18:57:57.262Z,55.07
2023-01-28T19:03:02.119Z,54.90
2023-01-28T19:08:06.310Z,54.92
2023-01-28T19:13:10.403Z,55.05
2023-01-28T19:18:13.209Z,55.51
2023-01-28T19:23:16.697Z,55.30
2023-01-28T19:28:22.133Z,55.21
2023-01-28T19:33:24.852Z,55.64
2023-01-28T19:38:28.620Z,55.83
2023-01-28T19:43:31.743Z,55.64
2023-01-28T19:48:36.118Z,55.88
2023-01-28T19:53:41.586Z,55.97
2023-01-28T19:58:45.988Z,56.15
2023-01-28T20:03:55.279Z,56.09
2023-01-28T20:09:01.653Z,55.54
2023-01-28T20:14:04.677Z,55.91
2023-01-28T20:19:13.315Z,55.93
2023-01-28T20:24:16.475Z,56.06
2023-01-28T20:29:22.509Z,56.22
2023-01-28T20:34:25.136Z,56.04
2023-01-28T20:39:27.852Z,56.28
2023-01-28T20:44:32.413Z,56.39
2023-01-28T20:49:35.192Z,56.27
2023-01-28T20:54:38.248Z,56.45
2023-01-28T20:59:40.880Z,56.69
2023-01-28T21:04:43.592Z,57.10
2023-01-28T21:09:46.190Z,56.68
2023-01-28T21:14:52.199Z,56.25
2023-01-28T21:19:56.679Z,56.75
2023-01-28T21:24:59.391Z,56.58
2023-01-28T21:30:02.475Z,56.78
2023-01-28T21:35:06.455Z,57.20
2023-01-28T21:40:10.121Z,56.76
2023-01-28T21:45:12.772Z,57.03
2023-01-28T21:50:16.436Z,56.98
2023-01-28T21:55:19.652Z,57.47
2023-01-28T22:00:23.008Z,57.35
2023-01-28T22:05:25.736Z,57.63
2023-01-28T22:10:28.510Z,57.20
2023-01-28T22:15:32.792Z,57.74
2023-01-28T22:20:35.533Z,57.62
2023-01-28T22:25:38.829Z,57.67
2023-01-28T22:30:41.409Z,58.64
2023-01-28T22:35:44.414Z,57.69
2023-01-28T22:40:47.120Z,57.67
2023-01-28T22:45:58.390Z,57.67
2023-01-28T22:51:06.814Z,57.79
2023-01-28T22:56:09.574Z,57.88
2023-01-28T23:01:15.747Z,57.91
2023-01-28T23:06:19.252Z,57.65
2023-01-28T23:11:28.752Z,57.47
2023-01-28T23:16:50.559Z,57.82
2023-01-28T23:22:11.894Z,57.78
2023-01-28T23:27:14.997Z,57.68
2023-01-28T23:32:17.659Z,57.92
2023-01-28T23:37:20.513Z,58.29
2023-01-28T23:42:23.868Z,58.43
2023-01-28T23:47:26.629Z,58.18
2023-01-28T23:52:29.409Z,58.26
2023-01-28T23:57:33.934Z,58.33
